sensor_id;sensor_type;location;lat;lon;timestamp;P1;durP1;ratioP1;P2;durP2;ratioP2
75506;SDS011;64086;43.220;27.878;2023-12-04T00:00:24;6.70;;;5.72;;
75506;SDS011;64086;43.220;27.878;2023-12-04T00:02:50;6.75;;;5.30;;
75506;SDS011;64086;43.220;27.878;2023-12-04T00:05:15;7.53;;;5.63;;
75506;SDS011;64086;43.220;27.878;2023-12-04T00:07:41;6.30;;;5.60;;
75506;SDS011;64086;43.220;27.878;2023-12-04T00:10:07;6.90;;;5.50;;
75506;SDS011;64086;43.220;27.878;2023-12-04T00:12:33;7.78;;;5.65;;
75506;SDS011;64086;43.220;27.878;2023-12-04T00:14:59;8.07;;;5.88;;
75506;SDS011;64086;43.220;27.878;2023-12-04T00:17:24;6.85;;;5.57;;
75506;SDS011;64086;43.220;27.878;2023-12-04T00:19:50;8.15;;;6.05;;
75506;SDS011;64086;43.220;27.878;2023-12-04T00:22:15;7.57;;;6.10;;
75506;SDS011;64086;43.220;27.878;2023-12-04T00:24:41;10.05;;;7.07;;
75506;SDS011;64086;43.220;27.878;2023-12-04T00:27:06;8.88;;;6.95;;
75506;SDS011;64086;43.220;27.878;2023-12-04T00:29:32;7.65;;;6.22;;
75506;SDS011;64086;43.220;27.878;2023-12-04T00:31:57;8.73;;;6.95;;
75506;SDS011;64086;43.220;27.878;2023-12-04T00:34:23;7.20;;;5.82;;
75506;SDS011;64086;43.220;27.878;2023-12-04T00:36:48;9.68;;;6.95;;
75506;SDS011;64086;43.220;27.878;2023-12-04T00:39:14;9.30;;;6.82;;
75506;SDS011;64086;43.220;27.878;2023-12-04T00:41:39;8.90;;;6.72;;
75506;SDS011;64086;43.220;27.878;2023-12-04T00:44:05;9.02;;;6.60;;
75506;SDS011;64086;43.220;27.878;2023-12-04T00:46:30;7.78;;;6.35;;
75506;SDS011;64086;43.220;27.878;2023-12-04T00:48:56;9.00;;;6.75;;
75506;SDS011;64086;43.220;27.878;2023-12-04T00:51:21;8.85;;;6.90;;
75506;SDS011;64086;43.220;27.878;2023-12-04T00:53:47;8.93;;;6.70;;
75506;SDS011;64086;43.220;27.878;2023-12-04T00:56:13;8.80;;;7.25;;
75506;SDS011;64086;43.220;27.878;2023-12-04T00:58:38;9.43;;;6.82;;
75506;SDS011;64086;43.220;27.878;2023-12-04T01:01:04;10.30;;;7.10;;
75506;SDS011;64086;43.220;27.878;2023-12-04T01:03:30;9.52;;;7.57;;
75506;SDS011;64086;43.220;27.878;2023-12-04T01:05:58;9.70;;;7.15;;
75506;SDS011;64086;43.220;27.878;2023-12-04T01:08:24;10.18;;;7.57;;
75506;SDS011;64086;43.220;27.878;2023-12-04T01:10:49;9.23;;;7.55;;
75506;SDS011;64086;43.220;27.878;2023-12-04T01:13:15;10.73;;;8.18;;
75506;SDS011;64086;43.220;27.878;2023-12-04T01:15:40;9.35;;;7.25;;
75506;SDS011;64086;43.220;27.878;2023-12-04T01:18:07;10.50;;;7.65;;
75506;SDS011;64086;43.220;27.878;2023-12-04T01:20:33;10.18;;;7.10;;
75506;SDS011;64086;43.220;27.878;2023-12-04T01:22:59;10.45;;;7.78;;
75506;SDS011;64086;43.220;27.878;2023-12-04T01:25:24;10.48;;;7.70;;
75506;SDS011;64086;43.220;27.878;2023-12-04T01:27:50;10.15;;;7.47;;
75506;SDS011;64086;43.220;27.878;2023-12-04T01:30:16;10.77;;;8.15;;
75506;SDS011;64086;43.220;27.878;2023-12-04T01:32:41;10.70;;;7.57;;
75506;SDS011;64086;43.220;27.878;2023-12-04T01:35:07;10.43;;;8.10;;
75506;SDS011;64086;43.220;27.878;2023-12-04T01:37:32;10.18;;;7.35;;
75506;SDS011;64086;43.220;27.878;2023-12-04T01:39:58;9.98;;;7.60;;
75506;SDS011;64086;43.220;27.878;2023-12-04T01:42:23;10.13;;;7.35;;
75506;SDS011;64086;43.220;27.878;2023-12-04T01:44:49;9.25;;;7.38;;
75506;SDS011;64086;43.220;27.878;2023-12-04T01:47:14;9.40;;;7.43;;
75506;SDS011;64086;43.220;27.878;2023-12-04T01:49:40;9.70;;;6.80;;
75506;SDS011;64086;43.220;27.878;2023-12-04T01:52:05;9.45;;;7.70;;
75506;SDS011;64086;43.220;27.878;2023-12-04T01:54:31;9.05;;;6.85;;
75506;SDS011;64086;43.220;27.878;2023-12-04T01:56:57;10.43;;;7.10;;
75506;SDS011;64086;43.220;27.878;2023-12-04T01:59:24;8.52;;;6.47;;
75506;SDS011;64086;43.220;27.878;2023-12-04T02:01:50;8.75;;;6.82;;
75506;SDS011;64086;43.220;27.878;2023-12-04T02:04:17;9.13;;;7.05;;
75506;SDS011;64086;43.220;27.878;2023-12-04T02:06:42;8.95;;;7.35;;
75506;SDS011;64086;43.220;27.878;2023-12-04T02:09:08;9.20;;;7.20;;
75506;SDS011;64086;43.220;27.878;2023-12-04T02:11:37;8.93;;;6.85;;
75506;SDS011;64086;43.220;27.878;2023-12-04T02:14:04;8.23;;;6.45;;
75506;SDS011;64086;43.220;27.878;2023-12-04T02:16:30;10.20;;;7.18;;
75506;SDS011;64086;43.220;27.878;2023-12-04T02:18:57;8.50;;;6.95;;
75506;SDS011;64086;43.220;27.878;2023-12-04T02:21:23;9.55;;;7.53;;
75506;SDS011;64086;43.220;27.878;2023-12-04T02:23:49;9.25;;;6.95;;
75506;SDS011;64086;43.220;27.878;2023-12-04T02:26:16;10.60;;;7.78;;
75506;SDS011;64086;43.220;27.878;2023-12-04T02:28:45;10.02;;;7.60;;
75506;SDS011;64086;43.220;27.878;2023-12-04T02:31:13;9.73;;;7.30;;
75506;SDS011;64086;43.220;27.878;2023-12-04T02:33:41;9.07;;;7.47;;
75506;SDS011;64086;43.220;27.878;2023-12-04T02:36:06;8.45;;;6.95;;
75506;SDS011;64086;43.220;27.878;2023-12-04T02:38:33;8.85;;;6.88;;
75506;SDS011;64086;43.220;27.878;2023-12-04T02:40:58;9.23;;;7.25;;
75506;SDS011;64086;43.220;27.878;2023-12-04T02:43:24;11.05;;;8.10;;
75506;SDS011;64086;43.220;27.878;2023-12-04T02:45:50;10.63;;;7.80;;
75506;SDS011;64086;43.220;27.878;2023-12-04T02:48:15;9.43;;;7.20;;
75506;SDS011;64086;43.220;27.878;2023-12-04T02:50:40;9.43;;;7.35;;
75506;SDS011;64086;43.220;27.878;2023-12-04T02:53:06;10.50;;;7.88;;
75506;SDS011;64086;43.220;27.878;2023-12-04T02:55:31;9.23;;;7.25;;
75506;SDS011;64086;43.220;27.878;2023-12-04T02:57:57;9.00;;;7.68;;
75506;SDS011;64086;43.220;27.878;2023-12-04T03:00:22;9.90;;;7.22;;
75506;SDS011;64086;43.220;27.878;2023-12-04T03:02:48;10.75;;;7.57;;
75506;SDS011;64086;43.220;27.878;2023-12-04T03:05:13;9.52;;;7.80;;
75506;SDS011;64086;43.220;27.878;2023-12-04T03:07:39;10.55;;;7.80;;
75506;SDS011;64086;43.220;27.878;2023-12-04T03:10:04;10.90;;;8.43;;
75506;SDS011;64086;43.220;27.878;2023-12-04T03:12:30;11.65;;;8.60;;
75506;SDS011;64086;43.220;27.878;2023-12-04T03:14:56;10.27;;;7.70;;
75506;SDS011;64086;43.220;27.878;2023-12-04T03:17:21;11.85;;;8.50;;
75506;SDS011;64086;43.220;27.878;2023-12-04T03:19:47;10.40;;;7.78;;
75506;SDS011;64086;43.220;27.878;2023-12-04T03:22:12;10.57;;;7.95;;
75506;SDS011;64086;43.220;27.878;2023-12-04T03:24:38;10.73;;;7.60;;
75506;SDS011;64086;43.220;27.878;2023-12-04T03:27:04;11.07;;;8.38;;
75506;SDS011;64086;43.220;27.878;2023-12-04T03:29:29;10.98;;;8.52;;
75506;SDS011;64086;43.220;27.878;2023-12-04T03:31:55;11.43;;;8.27;;
75506;SDS011;64086;43.220;27.878;2023-12-04T03:34:20;10.98;;;8.23;;
75506;SDS011;64086;43.220;27.878;2023-12-04T03:36:46;11.27;;;8.10;;
75506;SDS011;64086;43.220;27.878;2023-12-04T03:39:11;11.45;;;8.48;;
75506;SDS011;64086;43.220;27.878;2023-12-04T03:41:37;10.77;;;8.13;;
75506;SDS011;64086;43.220;27.878;2023-12-04T03:44:02;11.32;;;8.13;;
75506;SDS011;64086;43.220;27.878;2023-12-04T03:46:28;10.27;;;7.57;;
75506;SDS011;64086;43.220;27.878;2023-12-04T03:48:53;9.77;;;8.02;;
75506;SDS011;64086;43.220;27.878;2023-12-04T03:51:19;12.05;;;8.18;;
75506;SDS011;64086;43.220;27.878;2023-12-04T03:53:45;12.05;;;8.10;;
75506;SDS011;64086;43.220;27.878;2023-12-04T03:56:10;11.70;;;8.50;;
75506;SDS011;64086;43.220;27.878;2023-12-04T03:58:37;11.32;;;8.70;;
75506;SDS011;64086;43.220;27.878;2023-12-04T04:01:03;11.70;;;8.20;;
75506;SDS011;64086;43.220;27.878;2023-12-04T04:03:29;12.27;;;8.48;;
75506;SDS011;64086;43.220;27.878;2023-12-04T04:05:55;11.45;;;8.13;;
75506;SDS011;64086;43.220;27.878;2023-12-04T04:08:20;13.32;;;9.02;;
75506;SDS011;64086;43.220;27.878;2023-12-04T04:10:45;12.32;;;8.60;;
75506;SDS011;64086;43.220;27.878;2023-12-04T04:13:11;10.45;;;8.60;;
75506;SDS011;64086;43.220;27.878;2023-12-04T04:15:37;11.63;;;8.95;;
75506;SDS011;64086;43.220;27.878;2023-12-04T04:18:02;11.52;;;8.65;;
75506;SDS011;64086;43.220;27.878;2023-12-04T04:20:28;10.27;;;7.93;;
75506;SDS011;64086;43.220;27.878;2023-12-04T04:22:53;11.00;;;8.10;;
75506;SDS011;64086;43.220;27.878;2023-12-04T04:25:19;11.95;;;7.93;;
75506;SDS011;64086;43.220;27.878;2023-12-04T04:27:46;10.63;;;7.70;;
75506;SDS011;64086;43.220;27.878;2023-12-04T04:30:12;9.95;;;7.93;;
75506;SDS011;64086;43.220;27.878;2023-12-04T04:32:38;9.88;;;7.78;;
75506;SDS011;64086;43.220;27.878;2023-12-04T04:35:04;11.23;;;7.95;;
75506;SDS011;64086;43.220;27.878;2023-12-04T04:37:29;10.95;;;8.20;;
75506;SDS011;64086;43.220;27.878;2023-12-04T04:39:55;10.70;;;8.20;;
75506;SDS011;64086;43.220;27.878;2023-12-04T04:42:21;11.60;;;8.15;;
75506;SDS011;64086;43.220;27.878;2023-12-04T04:44:47;13.18;;;9.18;;
75506;SDS011;64086;43.220;27.878;2023-12-04T04:47:13;11.85;;;8.25;;
75506;SDS011;64086;43.220;27.878;2023-12-04T04:49:38;11.65;;;8.63;;
75506;SDS011;64086;43.220;27.878;2023-12-04T04:52:04;12.02;;;8.57;;
75506;SDS011;64086;43.220;27.878;2023-12-04T04:54:32;12.55;;;8.85;;
75506;SDS011;64086;43.220;27.878;2023-12-04T04:56:58;11.32;;;8.27;;
75506;SDS011;64086;43.220;27.878;2023-12-04T04:59:24;12.98;;;9.00;;
75506;SDS011;64086;43.220;27.878;2023-12-04T05:01:49;12.63;;;9.40;;
75506;SDS011;64086;43.220;27.878;2023-12-04T05:04:15;11.63;;;8.27;;
75506;SDS011;64086;43.220;27.878;2023-12-04T05:06:40;11.88;;;8.70;;
75506;SDS011;64086;43.220;27.878;2023-12-04T05:09:06;11.13;;;8.50;;
75506;SDS011;64086;43.220;27.878;2023-12-04T05:11:31;12.82;;;8.57;;
75506;SDS011;64086;43.220;27.878;2023-12-04T05:13:57;12.40;;;9.05;;
75506;SDS011;64086;43.220;27.878;2023-12-04T05:16:22;13.40;;;9.90;;
75506;SDS011;64086;43.220;27.878;2023-12-04T05:18:48;11.95;;;8.95;;
75506;SDS011;64086;43.220;27.878;2023-12-04T05:21:13;13.20;;;9.52;;
75506;SDS011;64086;43.220;27.878;2023-12-04T05:23:39;13.07;;;9.05;;
75506;SDS011;64086;43.220;27.878;2023-12-04T05:26:05;14.35;;;9.38;;
75506;SDS011;64086;43.220;27.878;2023-12-04T05:28:31;15.05;;;10.10;;
75506;SDS011;64086;43.220;27.878;2023-12-04T05:30:56;14.05;;;9.20;;
75506;SDS011;64086;43.220;27.878;2023-12-04T05:33:22;15.30;;;9.80;;
75506;SDS011;64086;43.220;27.878;2023-12-04T05:35:48;13.38;;;9.55;;
75506;SDS011;64086;43.220;27.878;2023-12-04T05:38:13;13.48;;;9.70;;
75506;SDS011;64086;43.220;27.878;2023-12-04T05:40:39;13.13;;;9.27;;
75506;SDS011;64086;43.220;27.878;2023-12-04T05:43:05;12.30;;;8.65;;
75506;SDS011;64086;43.220;27.878;2023-12-04T05:45:30;13.45;;;9.18;;
75506;SDS011;64086;43.220;27.878;2023-12-04T05:47:56;13.50;;;9.60;;
75506;SDS011;64086;43.220;27.878;2023-12-04T05:50:21;13.65;;;9.05;;
75506;SDS011;64086;43.220;27.878;2023-12-04T05:52:47;12.40;;;8.98;;
75506;SDS011;64086;43.220;27.878;2023-12-04T05:55:12;12.00;;;8.95;;
75506;SDS011;64086;43.220;27.878;2023-12-04T05:57:38;14.55;;;9.55;;
75506;SDS011;64086;43.220;27.878;2023-12-04T06:00:05;14.10;;;9.95;;
75506;SDS011;64086;43.220;27.878;2023-12-04T06:02:37;14.98;;;10.13;;
75506;SDS011;64086;43.220;27.878;2023-12-04T06:05:03;13.60;;;9.95;;
75506;SDS011;64086;43.220;27.878;2023-12-04T06:07:29;14.60;;;10.30;;
75506;SDS011;64086;43.220;27.878;2023-12-04T06:09:54;13.70;;;10.02;;
75506;SDS011;64086;43.220;27.878;2023-12-04T06:12:20;12.45;;;9.38;;
75506;SDS011;64086;43.220;27.878;2023-12-04T06:14:45;15.05;;;10.32;;
75506;SDS011;64086;43.220;27.878;2023-12-04T06:17:11;14.52;;;10.88;;
75506;SDS011;64086;43.220;27.878;2023-12-04T06:19:36;14.50;;;10.60;;
75506;SDS011;64086;43.220;27.878;2023-12-04T06:22:02;14.77;;;10.27;;
75506;SDS011;64086;43.220;27.878;2023-12-04T06:24:27;14.07;;;9.60;;
75506;SDS011;64086;43.220;27.878;2023-12-04T06:26:53;13.35;;;9.80;;
75506;SDS011;64086;43.220;27.878;2023-12-04T06:29:19;14.48;;;9.60;;
75506;SDS011;64086;43.220;27.878;2023-12-04T06:31:45;14.60;;;9.95;;
75506;SDS011;64086;43.220;27.878;2023-12-04T06:34:11;12.90;;;9.35;;
75506;SDS011;64086;43.220;27.878;2023-12-04T06:36:37;13.02;;;9.68;;
75506;SDS011;64086;43.220;27.878;2023-12-04T06:39:07;13.73;;;9.65;;
75506;SDS011;64086;43.220;27.878;2023-12-04T06:41:35;13.70;;;9.40;;
75506;SDS011;64086;43.220;27.878;2023-12-04T06:44:01;12.15;;;9.57;;
75506;SDS011;64086;43.220;27.878;2023-12-04T06:46:28;15.02;;;10.85;;
75506;SDS011;64086;43.220;27.878;2023-12-04T06:48:54;14.13;;;10.00;;
75506;SDS011;64086;43.220;27.878;2023-12-04T06:51:22;14.95;;;10.40;;
75506;SDS011;64086;43.220;27.878;2023-12-04T06:53:48;15.48;;;9.52;;
75506;SDS011;64086;43.220;27.878;2023-12-04T06:56:13;14.60;;;9.70;;
75506;SDS011;64086;43.220;27.878;2023-12-04T06:58:39;14.15;;;10.43;;
75506;SDS011;64086;43.220;27.878;2023-12-04T07:01:04;13.52;;;9.82;;
75506;SDS011;64086;43.220;27.878;2023-12-04T07:03:30;13.00;;;9.65;;
75506;SDS011;64086;43.220;27.878;2023-12-04T07:05:55;13.23;;;9.60;;
75506;SDS011;64086;43.220;27.878;2023-12-04T07:08:21;15.55;;;10.15;;
75506;SDS011;64086;43.220;27.878;2023-12-04T07:10:46;14.25;;;9.68;;
75506;SDS011;64086;43.220;27.878;2023-12-04T07:13:12;14.02;;;9.75;;
75506;SDS011;64086;43.220;27.878;2023-12-04T07:15:38;15.00;;;10.27;;
75506;SDS011;64086;43.220;27.878;2023-12-04T07:18:03;14.63;;;9.23;;
75506;SDS011;64086;43.220;27.878;2023-12-04T07:20:29;12.80;;;9.02;;
75506;SDS011;64086;43.220;27.878;2023-12-04T07:22:54;14.25;;;9.95;;
75506;SDS011;64086;43.220;27.878;2023-12-04T07:25:23;12.77;;;9.95;;
75506;SDS011;64086;43.220;27.878;2023-12-04T07:27:48;14.15;;;10.00;;
75506;SDS011;64086;43.220;27.878;2023-12-04T07:30:14;12.80;;;8.98;;
75506;SDS011;64086;43.220;27.878;2023-12-04T07:32:40;12.70;;;8.52;;
75506;SDS011;64086;43.220;27.878;2023-12-04T07:35:05;13.90;;;9.65;;
75506;SDS011;64086;43.220;27.878;2023-12-04T07:37:31;12.27;;;9.13;;
75506;SDS011;64086;43.220;27.878;2023-12-04T07:39:57;13.57;;;9.98;;
75506;SDS011;64086;43.220;27.878;2023-12-04T07:42:22;14.15;;;10.25;;
75506;SDS011;64086;43.220;27.878;2023-12-04T07:44:48;13.23;;;9.20;;
75506;SDS011;64086;43.220;27.878;2023-12-04T07:47:14;13.48;;;9.55;;
75506;SDS011;64086;43.220;27.878;2023-12-04T07:49:41;12.55;;;9.23;;
75506;SDS011;64086;43.220;27.878;2023-12-04T07:52:07;16.83;;;10.50;;
75506;SDS011;64086;43.220;27.878;2023-12-04T07:54:32;13.55;;;9.63;;
75506;SDS011;64086;43.220;27.878;2023-12-04T07:56:58;15.02;;;10.13;;
75506;SDS011;64086;43.220;27.878;2023-12-04T07:59:23;13.43;;;10.07;;
75506;SDS011;64086;43.220;27.878;2023-12-04T08:01:49;13.98;;;9.65;;
75506;SDS011;64086;43.220;27.878;2023-12-04T08:04:14;12.70;;;9.55;;
75506;SDS011;64086;43.220;27.878;2023-12-04T08:06:40;13.98;;;10.30;;
75506;SDS011;64086;43.220;27.878;2023-12-04T08:09:06;15.00;;;11.15;;
75506;SDS011;64086;43.220;27.878;2023-12-04T08:11:35;16.05;;;10.50;;
75506;SDS011;64086;43.220;27.878;2023-12-04T08:14:01;13.48;;;10.45;;
75506;SDS011;64086;43.220;27.878;2023-12-04T08:16:26;12.77;;;9.80;;
75506;SDS011;64086;43.220;27.878;2023-12-04T08:18:54;14.73;;;10.30;;
75506;SDS011;64086;43.220;27.878;2023-12-04T08:21:19;15.55;;;10.85;;
75506;SDS011;64086;43.220;27.878;2023-12-04T08:23:45;14.02;;;9.88;;
75506;SDS011;64086;43.220;27.878;2023-12-04T08:26:10;14.05;;;10.60;;
75506;SDS011;64086;43.220;27.878;2023-12-04T08:28:36;16.02;;;10.77;;
75506;SDS011;64086;43.220;27.878;2023-12-04T08:31:06;14.00;;;9.93;;
75506;SDS011;64086;43.220;27.878;2023-12-04T08:33:35;13.73;;;9.75;;
75506;SDS011;64086;43.220;27.878;2023-12-04T08:36:01;13.98;;;9.13;;
75506;SDS011;64086;43.220;27.878;2023-12-04T08:38:26;11.68;;;8.77;;
75506;SDS011;64086;43.220;27.878;2023-12-04T08:40:52;14.60;;;10.38;;
75506;SDS011;64086;43.220;27.878;2023-12-04T08:43:18;13.88;;;9.93;;
75506;SDS011;64086;43.220;27.878;2023-12-04T08:45:45;13.40;;;9.65;;
75506;SDS011;64086;43.220;27.878;2023-12-04T08:48:11;11.48;;;9.35;;
75506;SDS011;64086;43.220;27.878;2023-12-04T08:50:36;13.60;;;9.63;;
75506;SDS011;64086;43.220;27.878;2023-12-04T08:53:03;13.25;;;9.13;;
75506;SDS011;64086;43.220;27.878;2023-12-04T08:55:29;14.23;;;9.38;;
75506;SDS011;64086;43.220;27.878;2023-12-04T08:57:55;15.88;;;10.55;;
75506;SDS011;64086;43.220;27.878;2023-12-04T09:00:20;13.90;;;8.95;;
75506;SDS011;64086;43.220;27.878;2023-12-04T09:02:47;13.13;;;9.52;;
75506;SDS011;64086;43.220;27.878;2023-12-04T09:05:12;15.75;;;10.50;;
75506;SDS011;64086;43.220;27.878;2023-12-04T09:07:38;14.70;;;10.77;;
75506;SDS011;64086;43.220;27.878;2023-12-04T09:10:04;14.60;;;10.15;;
75506;SDS011;64086;43.220;27.878;2023-12-04T09:12:29;13.85;;;9.93;;
75506;SDS011;64086;43.220;27.878;2023-12-04T09:14:55;14.65;;;10.25;;
75506;SDS011;64086;43.220;27.878;2023-12-04T09:17:42;13.35;;;9.82;;
75506;SDS011;64086;43.220;27.878;2023-12-04T09:20:07;13.95;;;9.80;;
75506;SDS011;64086;43.220;27.878;2023-12-04T09:22:34;13.77;;;9.88;;
75506;SDS011;64086;43.220;27.878;2023-12-04T09:25:03;18.52;;;10.60;;
75506;SDS011;64086;43.220;27.878;2023-12-04T09:27:30;14.85;;;10.40;;
75506;SDS011;64086;43.220;27.878;2023-12-04T09:29:56;14.13;;;10.10;;
75506;SDS011;64086;43.220;27.878;2023-12-04T09:32:21;17.35;;;10.40;;
75506;SDS011;64086;43.220;27.878;2023-12-04T09:34:47;14.70;;;10.00;;
75506;SDS011;64086;43.220;27.878;2023-12-04T09:37:12;16.23;;;10.52;;
75506;SDS011;64086;43.220;27.878;2023-12-04T09:39:39;14.00;;;10.10;;
75506;SDS011;64086;43.220;27.878;2023-12-04T09:42:05;14.90;;;10.55;;
75506;SDS011;64086;43.220;27.878;2023-12-04T09:44:31;15.70;;;10.65;;
75506;SDS011;64086;43.220;27.878;2023-12-04T09:46:57;15.38;;;10.07;;
75506;SDS011;64086;43.220;27.878;2023-12-04T09:49:23;13.13;;;9.32;;
75506;SDS011;64086;43.220;27.878;2023-12-04T09:51:51;15.68;;;11.00;;
75506;SDS011;64086;43.220;27.878;2023-12-04T09:54:16;16.05;;;10.63;;
75506;SDS011;64086;43.220;27.878;2023-12-04T09:56:42;17.02;;;10.73;;
75506;SDS011;64086;43.220;27.878;2023-12-04T09:59:08;14.88;;;10.10;;
75506;SDS011;64086;43.220;27.878;2023-12-04T10:01:35;14.90;;;10.70;;
75506;SDS011;64086;43.220;27.878;2023-12-04T10:04:01;15.60;;;10.85;;
75506;SDS011;64086;43.220;27.878;2023-12-04T10:06:30;14.85;;;10.15;;
75506;SDS011;64086;43.220;27.878;2023-12-04T10:08:56;18.05;;;10.55;;
75506;SDS011;64086;43.220;27.878;2023-12-04T10:11:23;15.38;;;10.43;;
75506;SDS011;64086;43.220;27.878;2023-12-04T10:13:52;16.67;;;11.45;;
75506;SDS011;64086;43.220;27.878;2023-12-04T10:16:34;15.02;;;10.45;;
75506;SDS011;64086;43.220;27.878;2023-12-04T10:19:16;17.17;;;9.70;;
75506;SDS011;64086;43.220;27.878;2023-12-04T10:21:51;13.05;;;10.05;;
75506;SDS011;64086;43.220;27.878;2023-12-04T10:24:26;16.98;;;10.50;;
75506;SDS011;64086;43.220;27.878;2023-12-04T10:26:53;14.68;;;10.25;;
75506;SDS011;64086;43.220;27.878;2023-12-04T10:29:19;13.27;;;10.25;;
75506;SDS011;64086;43.220;27.878;2023-12-04T10:31:44;16.33;;;9.60;;
75506;SDS011;64086;43.220;27.878;2023-12-04T10:34:10;14.18;;;9.23;;
75506;SDS011;64086;43.220;27.878;2023-12-04T10:36:36;14.38;;;9.27;;
75506;SDS011;64086;43.220;27.878;2023-12-04T10:39:02;12.82;;;9.63;;
75506;SDS011;64086;43.220;27.878;2023-12-04T10:41:30;14.48;;;9.32;;
75506;SDS011;64086;43.220;27.878;2023-12-04T10:43:56;13.77;;;9.40;;
75506;SDS011;64086;43.220;27.878;2023-12-04T10:46:24;11.80;;;9.13;;
75506;SDS011;64086;43.220;27.878;2023-12-04T10:48:49;14.50;;;9.35;;
75506;SDS011;64086;43.220;27.878;2023-12-04T10:51:15;13.18;;;8.80;;
75506;SDS011;64086;43.220;27.878;2023-12-04T10:53:42;14.90;;;9.63;;
75506;SDS011;64086;43.220;27.878;2023-12-04T10:56:14;13.85;;;8.82;;
75506;SDS011;64086;43.220;27.878;2023-12-04T10:58:44;11.93;;;8.68;;
75506;SDS011;64086;43.220;27.878;2023-12-04T11:01:15;12.23;;;8.10;;
75506;SDS011;64086;43.220;27.878;2023-12-04T11:03:47;14.00;;;8.15;;
75506;SDS011;64086;43.220;27.878;2023-12-04T11:06:14;12.93;;;8.73;;
75506;SDS011;64086;43.220;27.878;2023-12-04T11:08:41;11.77;;;8.10;;
75506;SDS011;64086;43.220;27.878;2023-12-04T11:11:08;12.57;;;8.80;;
75506;SDS011;64086;43.220;27.878;2023-12-04T11:13:38;12.80;;;9.07;;
75506;SDS011;64086;43.220;27.878;2023-12-04T11:19:10;14.02;;;9.77;;
75506;SDS011;64086;43.220;27.878;2023-12-04T11:21:58;15.32;;;9.93;;
75506;SDS011;64086;43.220;27.878;2023-12-04T11:24:24;13.63;;;9.70;;
75506;SDS011;64086;43.220;27.878;2023-12-04T11:26:50;15.20;;;10.10;;
75506;SDS011;64086;43.220;27.878;2023-12-04T11:29:15;13.55;;;9.80;;
75506;SDS011;64086;43.220;27.878;2023-12-04T11:31:42;16.40;;;10.40;;
75506;SDS011;64086;43.220;27.878;2023-12-04T11:34:08;16.52;;;9.98;;
75506;SDS011;64086;43.220;27.878;2023-12-04T11:36:34;14.82;;;10.13;;
75506;SDS011;64086;43.220;27.878;2023-12-04T11:39:00;15.05;;;10.02;;
75506;SDS011;64086;43.220;27.878;2023-12-04T11:41:25;13.45;;;10.30;;
75506;SDS011;64086;43.220;27.878;2023-12-04T11:43:51;15.85;;;9.73;;
75506;SDS011;64086;43.220;27.878;2023-12-04T11:46:21;15.70;;;9.40;;
75506;SDS011;64086;43.220;27.878;2023-12-04T11:48:48;16.25;;;10.65;;
75506;SDS011;64086;43.220;27.878;2023-12-04T11:51:15;15.98;;;10.20;;
75506;SDS011;64086;43.220;27.878;2023-12-04T11:54:14;18.20;;;10.88;;
75506;SDS011;64086;43.220;27.878;2023-12-04T11:56:40;14.63;;;10.75;;
75506;SDS011;64086;43.220;27.878;2023-12-04T11:59:14;15.85;;;10.75;;
75506;SDS011;64086;43.220;27.878;2023-12-04T12:01:40;17.05;;;11.48;;
75506;SDS011;64086;43.220;27.878;2023-12-04T12:04:08;15.57;;;11.05;;
75506;SDS011;64086;43.220;27.878;2023-12-04T12:06:35;14.65;;;10.48;;
75506;SDS011;64086;43.220;27.878;2023-12-04T12:09:00;17.17;;;10.82;;
75506;SDS011;64086;43.220;27.878;2023-12-04T12:11:26;15.60;;;10.85;;
75506;SDS011;64086;43.220;27.878;2023-12-04T12:13:55;16.25;;;10.48;;
75506;SDS011;64086;43.220;27.878;2023-12-04T12:16:20;17.38;;;10.02;;
75506;SDS011;64086;43.220;27.878;2023-12-04T12:18:46;14.77;;;9.73;;
75506;SDS011;64086;43.220;27.878;2023-12-04T12:21:12;15.35;;;10.07;;
75506;SDS011;64086;43.220;27.878;2023-12-04T12:23:37;14.88;;;10.32;;
75506;SDS011;64086;43.220;27.878;2023-12-04T12:26:03;16.38;;;10.50;;
75506;SDS011;64086;43.220;27.878;2023-12-04T12:28:29;15.98;;;10.43;;
75506;SDS011;64086;43.220;27.878;2023-12-04T12:30:55;15.15;;;10.18;;
75506;SDS011;64086;43.220;27.878;2023-12-04T12:33:20;19.55;;;11.23;;
75506;SDS011;64086;43.220;27.878;2023-12-04T12:35:48;16.95;;;10.95;;
75506;SDS011;64086;43.220;27.878;2023-12-04T12:38:13;17.52;;;11.02;;
75506;SDS011;64086;43.220;27.878;2023-12-04T12:40:40;17.30;;;10.82;;
75506;SDS011;64086;43.220;27.878;2023-12-04T12:43:06;17.05;;;10.57;;
75506;SDS011;64086;43.220;27.878;2023-12-04T12:45:42;18.33;;;11.10;;
75506;SDS011;64086;43.220;27.878;2023-12-04T12:48:14;15.20;;;10.27;;
75506;SDS011;64086;43.220;27.878;2023-12-04T12:50:41;19.67;;;10.98;;
75506;SDS011;64086;43.220;27.878;2023-12-04T12:53:08;15.90;;;11.00;;
75506;SDS011;64086;43.220;27.878;2023-12-04T12:55:33;15.65;;;10.95;;
75506;SDS011;64086;43.220;27.878;2023-12-04T12:58:03;17.85;;;10.95;;
75506;SDS011;64086;43.220;27.878;2023-12-04T13:00:31;16.38;;;10.15;;
75506;SDS011;64086;43.220;27.878;2023-12-04T13:02:58;16.33;;;10.32;;
75506;SDS011;64086;43.220;27.878;2023-12-04T13:05:24;15.80;;;9.80;;
75506;SDS011;64086;43.220;27.878;2023-12-04T13:07:49;13.63;;;9.73;;
75506;SDS011;64086;43.220;27.878;2023-12-04T13:10:15;15.85;;;10.35;;
75506;SDS011;64086;43.220;27.878;2023-12-04T13:12:40;16.33;;;9.88;;
75506;SDS011;64086;43.220;27.878;2023-12-04T13:15:06;13.82;;;9.20;;
75506;SDS011;64086;43.220;27.878;2023-12-04T13:17:32;18.10;;;10.23;;
75506;SDS011;64086;43.220;27.878;2023-12-04T13:20:16;15.93;;;9.88;;
75506;SDS011;64086;43.220;27.878;2023-12-04T13:22:42;14.68;;;9.55;;
75506;SDS011;64086;43.220;27.878;2023-12-04T13:25:07;14.48;;;9.63;;
75506;SDS011;64086;43.220;27.878;2023-12-04T13:27:35;13.77;;;9.00;;
75506;SDS011;64086;43.220;27.878;2023-12-04T13:30:05;13.93;;;9.40;;
75506;SDS011;64086;43.220;27.878;2023-12-04T13:32:31;12.15;;;9.68;;
75506;SDS011;64086;43.220;27.878;2023-12-04T13:34:58;16.88;;;9.35;;
75506;SDS011;64086;43.220;27.878;2023-12-04T13:37:24;15.07;;;9.63;;
75506;SDS011;64086;43.220;27.878;2023-12-04T13:39:52;14.90;;;8.52;;
75506;SDS011;64086;43.220;27.878;2023-12-04T13:42:23;13.10;;;8.38;;
75506;SDS011;64086;43.220;27.878;2023-12-04T13:45:07;14.15;;;7.93;;
75506;SDS011;64086;43.220;27.878;2023-12-04T13:47:37;12.73;;;8.65;;
75506;SDS011;64086;43.220;27.878;2023-12-04T13:50:06;14.05;;;9.18;;
75506;SDS011;64086;43.220;27.878;2023-12-04T13:52:34;12.98;;;8.07;;
75506;SDS011;64086;43.220;27.878;2023-12-04T13:55:00;11.98;;;8.27;;
75506;SDS011;64086;43.220;27.878;2023-12-04T13:57:26;14.32;;;8.75;;
75506;SDS011;64086;43.220;27.878;2023-12-04T14:00:01;12.90;;;8.47;;
75506;SDS011;64086;43.220;27.878;2023-12-04T14:02:27;13.15;;;8.10;;
75506;SDS011;64086;43.220;27.878;2023-12-04T14:04:52;11.05;;;7.97;;
75506;SDS011;64086;43.220;27.878;2023-12-04T14:07:18;14.50;;;8.60;;
75506;SDS011;64086;43.220;27.878;2023-12-04T14:09:44;13.00;;;8.30;;
75506;SDS011;64086;43.220;27.878;2023-12-04T14:12:12;13.27;;;8.60;;
75506;SDS011;64086;43.220;27.878;2023-12-04T14:14:39;12.75;;;8.48;;
75506;SDS011;64086;43.220;27.878;2023-12-04T14:17:04;13.27;;;9.05;;
75506;SDS011;64086;43.220;27.878;2023-12-04T14:19:32;16.40;;;9.18;;